• Join FlightAware (Why Join?)
  • Login
  • US Flag 
02:25AM EDT


 

Airport Tracker/Info


-or-


 

Live Flight TrackerFlight Track Log ✈ UAL139 ✈ 03-Sep-2013 ✈ KDEN - RJAA / NRT

Flight Track Log - Related Links

Times and Time Zones

All times are in EDT time to prevent confusion due to time zone crossing. See the UAL139 flight status page for this flight to view local times or setup timezone preferences in your user account.

Time Position Orientation Groundspeed Altitude Reporting Facility
EDT Latitude Longitude Course Direction KTS MPH feet Rate Location/Type
02:34PM 39.8570 -104.6750 354° North  Level FlightAware
02:45PM 39.8640 -104.6960 North 136 157 5,100 420 Climbing FlightAware
02:45PM 39.8730 -104.6960 360° North 173 199 5,100 540 Level FlightAware
02:46PM 39.8910 -104.6960 360° North 208 239 5,400 1,500 Climbing FlightAware
02:46PM 39.9200 -104.6970 358° North 222 255 6,300 1,440 Climbing FlightAware
02:46PM 39.9450 -104.7040 348° North 246 283 6,700 1,020 Climbing FlightAware
02:47PM 39.9640 -104.7090 349° North 265 305 7,000 1,200 Climbing FlightAware
02:47PM 39.9870 -104.7160 347° North 282 325 7,400 1,860 Climbing FlightAware
02:47PM 40.0130 -104.7230 348° North 289 333 8,200 2,400 Climbing FlightAware
02:48PM 40.0400 -104.7310 347° North 293 337 9,000 2,220 Climbing FlightAware
02:48PM 40.0650 -104.7400 345° North 294 338 9,700 1,680 Climbing FlightAware
02:49PM 40.1140 -104.7620 341° North 322 371 10,600 1,440 Climbing FlightAware
02:49PM 40.1700 -104.7900 339° North 351 404 11,500 1,860 Climbing FlightAware
02:50PM 40.2260 -104.8160 340° North 358 412 12,900 2,280 Climbing FlightAware
02:50PM 40.2760 -104.8390 341° North 365 420 14,100 2,160 Climbing FlightAware
02:51PM 40.3340 -104.8660 340° North 372 428 15,400 2,100 Climbing FlightAware
02:52PM 40.3920 -104.8930 340° North 381 438 16,600 1,980 Climbing FlightAware
02:52PM 40.4540 -104.9220 340° North 388 447 17,800 1,860 Climbing FlightAware
02:53PM 40.5090 -104.9480 340° North 394 453 18,800 1,920 Climbing FlightAware
02:53PM 40.5710 -104.9770 340° North 396 456 20,000 1,920 Climbing FlightAware
02:54PM 40.6310 -105.0050 340° North 399 459 21,100 1,740 Climbing FlightAware
02:54PM 40.6900 -105.0330 340° North 406 467 22,000 1,260 Climbing FlightAware
02:55PM 40.7570 -105.0680 338° Northwest 422 486 22,600 900 Climbing FlightAware
02:56PM 40.8140 -105.1230 324° Northwest 436 502 23,100 1,020 Climbing FlightAware
02:56PM 40.8670 -105.1830 319° Northwest 448 516 23,800 1,020 Climbing FlightAware
02:57PM 40.9200 -105.2440 319° Northwest 458 527 24,300 1,200 Climbing FlightAware
02:57PM 40.9790 -105.3100 320° Northwest 462 532 25,200 1,320 Climbing FlightAware
02:58PM 41.0320 -105.3750 317° Northwest 466 536 25,900 1,140 Climbing FlightAware
02:59PM 41.0880 -105.4520 314° West 473 544 26,600 1,080 Climbing FlightAware
02:59PM 41.1410 -105.5240 314° West 481 554 27,200 1,140 Climbing FlightAware
03:00PM 41.1930 -105.5960 314° West 482 555 27,900 1,200 Climbing FlightAware
03:00PM 41.2490 -105.6730 314° West 488 562 28,600 1,080 Climbing FlightAware
03:01PM 41.3060 -105.7530 313° West 493 567 29,200 1,020 Climbing FlightAware
03:01PM 41.3590 -105.8250 314° West 499 574 29,800 900 Climbing FlightAware
03:02PM 41.4180 -105.9060 314° West 507 583 30,300 1,080 Climbing FlightAware
03:03PM 41.4740 -105.9830 314° West 503 579 31,100 1,800 Climbing FlightAware
03:03PM 41.5270 -106.0550 315° West 489 563 32,400 1,260 Climbing FlightAware
03:04PM 41.5850 -106.1350 314° West 500 575 32,600 420 Climbing FlightAware
03:04PM 41.6300 -106.1970 314° West 506 582 32,900 960 Climbing FlightAware
03:05PM 41.6820 -106.2690 314° West 501 577 33,600 1,500 Climbing FlightAware
03:05PM 41.7390 -106.3470 314° West 493 567 34,600 1,260 Climbing FlightAware
03:06PM 41.8170 -106.4560 314° West 491 565 35,400 840 Climbing FlightAware
03:07PM 41.8780 -106.5420 314° West 493 567 35,900 480 Climbing FlightAware
03:08PM 41.9360 -106.6240 314° West 492 566 36,100 120 Climbing FlightAware
03:08PM 41.9830 -106.6920 313° West 492 566 36,100  Level FlightAware
03:09PM 42.0310 -106.7610 313° West 492 566 36,100  Level FlightAware
03:10PM 42.0920 -106.8480 313° West 492 566 36,100  Level FlightAware
03:10PM 42.1390 -106.9170 313° West 492 566 36,100  Level FlightAware
03:11PM 42.1870 -106.9860 313° West 492 566 36,100  Level FlightAware
03:11PM 42.2160 -107.0280 313° West 492 566 36,100  Level FlightAware
03:12PM 42.2930 -107.1410 313° West 492 566 36,100  Level FlightAware
03:13PM 42.3410 -107.2090 314° West 492 566 36,100  Level FlightAware
03:13PM 42.3900 -107.2800 313° West 492 566 36,100  Level FlightAware
03:14PM 42.4370 -107.3490 313° West 492 566 36,100  Level FlightAware
03:14PM 42.4690 -107.3950 313° West 492 566 36,100  Level FlightAware
03:15PM 42.5160 -107.4640 313° West 492 566 36,100  Level FlightAware
03:16PM 42.5640 -107.5340 313° West 492 566 36,100  Level FlightAware
03:16PM 42.6130 -107.6050 313° West 492 566 36,100  Level FlightAware
03:17PM 42.6600 -107.6740 313° West 492 566 36,100 1,440 Level FlightAware
03:17PM 42.8403 -107.9186 313° West 488 562 38,000 1,080 Climbing Salt Lake Center
03:18PM 42.9428 -108.0681 313° West 485 558 38,000  Level Salt Lake Center
03:19PM 43.0217 -108.1867 312° West 487 560 38,000  Level Salt Lake Center
03:20PM 43.1306 -108.3494 313° West 485 558 38,000  Level Salt Lake Center
03:22PM 43.2219 -108.4856 313° West 485 558 38,000  Level Salt Lake Center
03:23PM 43.3136 -108.6214 313° West 485 558 38,000  Level Salt Lake Center
03:24PM 43.4044 -108.7592 312° West 486 559 38,000  Level Salt Lake Center
03:25PM 43.4964 -108.8956 313° West 487 560 38,000  Level Salt Lake Center
03:26PM 43.5872 -109.0347 312° West 489 563 38,000  Level Salt Lake Center
03:27PM 43.6775 -109.1739 312° West 488 562 38,000  Level Salt Lake Center
03:28PM 43.7867 -109.3406 312° West 488 562 38,000  Level Salt Lake Center
03:29PM 43.8803 -109.4836 312° West 487 560 38,000  Level Salt Lake Center
03:30PM 43.9672 -109.6156 313° West 485 558 38,000  Level Salt Lake Center
03:31PM 44.0533 -109.7492 312° West 486 559 38,000  Level Salt Lake Center
03:32PM 44.1533 -109.9064 312° West 487 560 38,000  Level Salt Lake Center
03:33PM 44.2389 -110.0422 311° West 488 562 38,000  Level Salt Lake Center
03:34PM 44.3378 -110.1989 311° West 484 557 38,000  Level Salt Lake Center
03:35PM 44.4231 -110.3336 312° West 484 557 38,000  Level Salt Lake Center
03:36PM 44.5203 -110.4908 311° West 481 554 38,000  Level Salt Lake Center
03:37PM 44.6058 -110.6256 312° West 483 556 38,000  Level Salt Lake Center
03:38PM 44.7028 -110.7842 311° West 482 555 38,000  Level Salt Lake Center
03:39PM 44.7858 -110.9192 311° West 480 552 38,000  Level Salt Lake Center
03:40PM 44.8825 -111.0769 311° West 480 552 38,000  Level Salt Lake Center
03:41PM 44.9650 -111.2125 311° West 480 552 38,000  Level Salt Lake Center
03:42PM 45.0617 -111.3708 311° West 479 551 38,000  Level Salt Lake Center
03:43PM 45.1431 -111.5072 310° West 477 549 38,000  Level Salt Lake Center
03:44PM 45.2375 -111.6669 310° West 475 547 38,000  Level Salt Lake Center
03:45PM 45.3206 -111.8025 311° West 476 548 38,000  Level Salt Lake Center
03:46PM 45.4028 -111.9417 310° West 480 552 38,000  Level Salt Lake Center
03:47PM 45.4983 -112.1053 310° West 482 555 38,000  Level Salt Lake Center
03:48PM 45.5808 -112.2417 311° West 478 550 38,000  Level Salt Lake Center
03:49PM 45.6761 -112.4053 310° West 479 551 38,000  Level Salt Lake Center
03:50PM 45.7578 -112.5469 310° West 481 554 38,000  Level Salt Lake Center
03:51PM 45.8531 -112.7089 310° West 478 550 38,000  Level Salt Lake Center
03:52PM 45.9325 -112.8508 309° West 476 548 38,000 -60 Level Salt Lake Center
03:53PM 46.0214 -113.0042 310° West 481 554 37,900  Descending Salt Lake Center
03:54PM 46.1058 -113.1506 310° West 478 550 38,000  Climbing Salt Lake Center
03:55PM 46.1908 -113.3028 309° West 486 559 37,900  Descending Salt Lake Center
03:57PM 46.2736 -113.4525 309° West 481 554 38,000  Climbing Salt Lake Center
03:58PM 46.3578 -113.6017 309° West 480 552 37,900 -60 Descending Salt Lake Center
03:59PM 46.4406 -113.7533 308° West 481 554 37,900  Level Salt Lake Center
04:05PM 46.9560 -114.6960 308° West 485 558 38,000  Climbing FlightAware
04:05PM 47.0100 -114.7970 308° West 483 556 38,000  Level FlightAware
04:06PM 47.0560 -114.8820 308° West 483 556 38,000  Level FlightAware
04:06PM 47.1100 -114.9840 308° West 483 556 38,000  Level FlightAware
04:07PM 47.1600 -115.0790 308° West 484 557 38,000  Level FlightAware
04:08PM 47.2050 -115.1630 308° West 486 559 38,000  Level FlightAware
04:08PM 47.2500 -115.2500 307° West 486 559 38,000  Level FlightAware
04:09PM 47.3160 -115.3750 308° West 487 560 38,000  Level FlightAware
04:10PM 47.3710 -115.4810 307° West 487 560 38,000  Level FlightAware
04:10PM 47.4270 -115.5880 308° West 488 562 38,000  Level FlightAware
04:11PM 47.4860 -115.6800 314° West 504 580 38,000  Level FlightAware
04:12PM 47.5520 -115.7600 321° Northwest 509 586 38,000  Level FlightAware
04:12PM 47.6170 -115.8380 321° Northwest 511 588 38,000  Level FlightAware
04:13PM 47.6790 -115.9120 321° Northwest 508 585 38,000  Level FlightAware
04:13PM 47.7440 -115.9910 321° Northwest 508 585 38,000  Level FlightAware
04:14PM 47.8070 -116.0670 321° Northwest 510 587 38,000  Level FlightAware
04:14PM 47.8720 -116.1460 321° Northwest 510 587 38,000  Level FlightAware
04:15PM 47.9360 -116.2250 320° Northwest 510 587 38,000  Level FlightAware
04:16PM 47.9930 -116.2940 321° Northwest 510 587 38,000  Level FlightAware
04:16PM 48.0710 -116.3900 321° Northwest 514 592 38,000  Level FlightAware
04:17PM 48.1350 -116.4690 321° Northwest 512 589 38,000  Level FlightAware
04:18PM 48.2080 -116.5590 321° Northwest 510 587 38,000  Level FlightAware
04:18PM 48.2630 -116.6270 321° Northwest 513 590 38,000  Level FlightAware
04:19PM 48.3280 -116.7080 320° Northwest 514 592 38,000  Level FlightAware
04:19PM 48.4000 -116.7980 320° Northwest 514 592 38,000  Level FlightAware
04:20PM 48.4550 -116.8670 320° Northwest 517 595 38,000  Level FlightAware
04:20PM 48.5200 -116.9490 320° Northwest 520 598 38,000  Level FlightAware
04:21PM 48.5930 -117.0410 320° Northwest 520 598 38,000  Level FlightAware
04:22PM 48.6490 -117.1130 320° Northwest 518 596 38,000  Level FlightAware
04:22PM 48.7110 -117.1920 320° Northwest 518 596 38,000  Level FlightAware
04:23PM 48.7770 -117.2750 320° Northwest 518 596 38,000  Level FlightAware
04:23PM 48.8410 -117.3570 320° Northwest 518 596 38,000  Level FlightAware
04:24PM 48.9120 -117.4480 320° Northwest 521 600 38,000  Level FlightAware
04:24PM 48.9680 -117.5210 319° Northwest 524 603 38,000  Level FlightAware
04:25PM 49.0320 -117.6030 320° Northwest 524 603 38,000  Level FlightAware
04:26PM 49.1080 -117.7020 320° Northwest 525 604 38,000  Level FlightAware
04:26PM 49.1730 -117.7870 319° Northwest 524 603 38,000  Level FlightAware
04:27PM 49.2210 -117.8500 319° Northwest 526 605 38,000  Level FlightAware
04:27PM 49.2980 -117.9510 319° Northwest 529 609 38,000  Level FlightAware
04:28PM 49.3670 -118.0420 319° Northwest 528 608 38,000  Level FlightAware
04:29PM 49.4410 -118.1390 320° Northwest 528 608 38,000  Level FlightAware
04:29PM 49.5040 -118.2230 319° Northwest 529 609 38,000  Level FlightAware
04:30PM 49.5670 -118.3060 320° Northwest 528 608 38,000  Level FlightAware
04:30PM 49.6340 -118.3960 319° Northwest 525 604 38,000  Level FlightAware
04:31PM 49.6980 -118.4820 319° Northwest 526 605 38,000  Level FlightAware
04:32PM 49.7610 -118.5680 319° Northwest 527 606 38,000  Level FlightAware
04:32PM 49.8230 -118.6510 319° Northwest 527 606 38,000  Level FlightAware
04:33PM 49.8900 -118.7420 319° Northwest 528 608 38,000  Level FlightAware
04:33PM 49.9550 -118.8300 319° Northwest 530 610 38,000  Level FlightAware
04:34PM 50.0180 -118.9170 318° Northwest 530 610 38,000  Level FlightAware
04:35PM 50.0810 -119.0030 319° Northwest 527 606 38,000  Level FlightAware
04:35PM 50.1450 -119.0910 319° Northwest 525 604 38,000  Level FlightAware
04:36PM 50.2060 -119.1760 318° Northwest 525 604 38,000  Level FlightAware
04:36PM 50.2730 -119.2690 318° Northwest 526 605 38,000  Level FlightAware
04:37PM 50.3370 -119.3580 318° Northwest 529 609 38,000  Level FlightAware
04:37PM 50.3980 -119.4420 319° Northwest 528 608 38,000  Level FlightAware
04:38PM 50.4630 -119.5340 318° Northwest 527 606 38,000  Level FlightAware
04:39PM 50.5440 -119.6490 318° Northwest 530 610 38,000  Level FlightAware
04:39PM 50.5990 -119.7260 318° Northwest 526 605 38,000  Level FlightAware
04:40PM 50.6710 -119.8280 318° Northwest 529 609 38,000  Level FlightAware
04:40PM 50.7350 -119.9200 318° Northwest 526 605 38,000  Level FlightAware
04:41PM 50.8000 -120.0130 318° Northwest 523 602 38,000  Level FlightAware
04:42PM 50.8580 -120.0960 318° Northwest 521 600 38,000  Level FlightAware
04:42PM 50.9200 -120.1860 318° Northwest 520 598 38,000  Level FlightAware
04:43PM 50.9850 -120.2800 318° Northwest 521 600 38,000  Level FlightAware
04:43PM 51.0420 -120.3620 318° Northwest 523 602 38,000  Level FlightAware
04:44PM 51.1060 -120.4560 317° Northwest 523 602 38,000  Level FlightAware
04:45PM 51.1700 -120.5490 318° Northwest 523 602 38,000  Level FlightAware
04:45PM 51.2340 -120.6430 317° Northwest 519 597 38,000  Level FlightAware
04:46PM 51.2840 -120.7170 317° Northwest 516 594 38,000  Level FlightAware
04:46PM 51.3470 -120.8100 317° Northwest 517 595 38,000  Level FlightAware
04:47PM 51.4150 -120.9120 317° Northwest 518 596 38,000  Level FlightAware
04:47PM 51.4740 -121.0150 313° West 518 596 38,000  Level FlightAware
04:48PM 51.5280 -121.1230 309° West 515 593 38,000  Level FlightAware
04:49PM 51.5740 -121.2170 308° West 512 589 38,000  Level FlightAware
04:49PM 51.6270 -121.3250 308° West 516 594 38,000  Level FlightAware
04:50PM 51.6810 -121.4350 308° West 518 596 38,000  Level FlightAware
04:50PM 51.7330 -121.5430 308° West 519 597 38,000  Level FlightAware
04:51PM 51.7830 -121.6460 308° West 519 597 38,000  Level FlightAware
04:52PM 51.8350 -121.7530 308° West 519 597 38,000  Level FlightAware
04:52PM 51.8860 -121.8590 308° West 521 600 38,000  Level FlightAware
04:53PM 51.9330 -121.9580 308° West 522 601 38,000  Level FlightAware
04:53PM 51.9800 -122.0560 308° West 526 605 38,000  Level FlightAware
04:54PM 52.0320 -122.1660 308° West 526 605 38,000  Level FlightAware
04:54PM 52.0860 -122.2800 308° West 529 609 38,000  Level FlightAware
04:55PM 52.1400 -122.3940 308° West 530 610 38,000  Level FlightAware
04:56PM 52.1890 -122.4970 308° West 533 613 38,000  Level FlightAware
04:56PM 52.2430 -122.6080 308° West 534 615 38,000  Level FlightAware
04:57PM 52.2960 -122.7210 308° West 533 613 38,000  Level FlightAware
04:57PM 52.3460 -122.8260 308° West 533 613 38,000  Level FlightAware
04:58PM 52.3990 -122.9390 308° West 531 611 38,000  Level FlightAware
04:59PM 52.4560 -123.0600 308° West 530 610 38,000  Level FlightAware
04:59PM 52.5030 -123.1620 307° West 528 608 38,000  Level FlightAware
05:00PM 52.5570 -123.2770 308° West 528 608 38,000  Level FlightAware
05:00PM 52.6090 -123.3900 307° West 525 604 38,000  Level FlightAware
05:01PM 52.6560 -123.4910 308° West 519 597 38,000  Level FlightAware
05:01PM 52.7100 -123.6110 307° West 518 596 38,000  Level FlightAware
05:02PM 52.7600 -123.7190 307° West 518 596 38,000  Level FlightAware
05:03PM 52.8120 -123.8330 307° West 517 595 38,000  Level FlightAware
05:03PM 52.8570 -123.9330 307° West 518 596 38,000  Level FlightAware
05:04PM 52.9110 -124.0530 307° West 519 597 38,000  Level FlightAware
05:04PM 52.9570 -124.1550 307° West 521 600 38,000  Level FlightAware
05:05PM 53.0090 -124.2720 306° West 521 600 38,000  Level FlightAware
05:05PM 53.0600 -124.3870 306° West 521 600 38,000  Level FlightAware
05:06PM 53.1110 -124.5020 306° West 522 601 38,000  Level FlightAware
05:07PM 53.1560 -124.6050 306° West 523 602 38,000  Level FlightAware
05:07PM 53.2110 -124.7300 306° West 521 600 38,000  Level FlightAware
05:08PM 53.2570 -124.8350 306° West 523 602 38,000  Level FlightAware
05:08PM 53.3070 -124.9510 306° West 527 606 38,000  Level FlightAware
05:09PM 53.3590 -125.0710 306° West 529 609 38,000  Level FlightAware
05:10PM 53.4090 -125.1880 306° West 530 610 38,000  Level FlightAware
05:10PM 53.4590 -125.3030 306° West 528 608 38,000  Level FlightAware
05:11PM 53.5160 -125.4360 306° West 526 605 38,000  Level FlightAware
05:11PM 53.5620 -125.5450 305° West 521 600 38,000  Level FlightAware
05:12PM 53.6190 -125.6800 305° West 517 595 38,000  Level FlightAware
05:13PM 53.6620 -125.7820 305° West 514 592 38,000  Level FlightAware
05:13PM 53.7140 -125.9060 305° West 513 590 38,000  Level FlightAware
05:14PM 53.7590 -126.0150 305° West 511 588 38,000  Level FlightAware
05:14PM 53.8040 -126.1220 305° West 512 589 38,000  Level FlightAware
05:15PM 53.8550 -126.2460 305° West 512 589 38,000  Level FlightAware
05:16PM 53.9190 -126.4030 305° West 510 587 38,000  Level FlightAware
05:17PM 53.9760 -126.5450 304° West 509 586 38,000  Level FlightAware
05:17PM 54.0300 -126.6750 305° West 511 588 38,000  Level FlightAware
05:18PM 54.0770 -126.7920 304° West 508 585 38,000  Level FlightAware
05:18PM 54.1250 -126.9110 305° West 503 579 38,000  Level FlightAware
05:19PM 54.1680 -127.0170 305° West 500 575 38,000  Level FlightAware
05:19PM 54.2120 -127.1290 304° West 500 575 38,000  Level FlightAware
05:20PM 54.2590 -127.2460 305° West 504 580 38,000  Level FlightAware
05:21PM 54.3100 -127.3750 304° West 504 580 38,000  Level FlightAware
05:21PM 54.3520 -127.4820 304° West 504 580 38,000  Level FlightAware
05:22PM 54.3980 -127.6000 304° West 505 581 38,000  Level FlightAware
05:23PM 54.4630 -127.7680 304° West 502 578 38,000  Level FlightAware
05:23PM 54.5040 -127.8750 303° West 502 578 38,000  Level FlightAware
05:24PM 54.5710 -128.0470 304° West 505 581 38,000  Level FlightAware
05:25PM 54.6120 -128.1560 303° West 506 582 38,000  Level FlightAware
05:25PM 54.6590 -128.2800 303° West 506 582 38,000  Level FlightAware
05:26PM 54.7130 -128.4240 303° West 505 581 38,000  Level FlightAware
05:27PM 54.7530 -128.5300 303° West 505 581 38,000  Level FlightAware
05:27PM 54.7920 -128.6340 303° West 505 581 38,000  Level FlightAware
05:28PM 54.8320 -128.7410 303° West 505 581 38,000  Level FlightAware
05:28PM 54.8710 -128.8450 303° West 505 581 38,000  Level FlightAware
05:29PM 54.9100 -128.9500 303° West 505 581 38,000  Level FlightAware
05:30PM 54.9490 -129.0540 303° West 505 581 38,000  Level FlightAware
05:30PM 54.9880 -129.1580 303° West 505 581 38,000  Level FlightAware
05:31PM 55.0280 -129.2660 303° West 505 581 38,000  Level FlightAware
05:31PM 55.0670 -129.3710 303° West 505 581 38,000  Level FlightAware
05:32PM 55.1080 -129.4810 303° West 505 581 38,000  Level FlightAware
05:33PM 55.1470 -129.5860 303° West 505 581 38,000  Level FlightAware
05:33PM 55.1860 -129.6910 303° West 505 581 38,000  Level FlightAware
05:34PM 55.2250 -129.7960 303° West 505 581 38,000  Level FlightAware
05:34PM 55.2640 -129.9010 303° West 505 581 38,000  Level FlightAware
05:35PM 55.3030 -130.0070 303° West 505 581 38,000  Level FlightAware
05:36PM 55.4667 -130.5667 303° West 500 575 38,000  Level Vancouver Center
05:37PM 55.5333 -130.7833 299° West 490 564 38,000  Level Vancouver Center
05:39PM 55.6333 -131.0000 309° West 500 575 38,000  Level Anchorage Center
05:40PM 55.7000 -131.2167 299° West 500 575 38,000  Level Anchorage Center
05:41PM 55.7667 -131.4000 303° West 500 575 38,000  Level Anchorage Center
05:42PM 55.8333 -131.6167 299° West 500 575 38,000  Level Anchorage Center
05:43PM 55.9000 -131.8167 301° West 490 564 38,000  Level Anchorage Center
05:44PM 55.9667 -132.0333 299° West 490 564 38,000  Level Anchorage Center
05:45PM 56.0500 -132.2500 305° West 490 564 38,000  Level Anchorage Center
05:46PM 56.1000 -132.4667 293° West 490 564 38,000  Level Anchorage Center
05:47PM 56.1667 -132.6833 299° West 500 575 38,000  Level Anchorage Center
05:48PM 56.2167 -132.9167 291° West 490 564 38,000  Level Anchorage Center
05:49PM 56.2667 -133.1333 293° West 480 552 38,000  Level Anchorage Center
05:50PM 56.3167 -133.3667 291° West 490 564 38,000  Level Anchorage Center
05:51PM 56.3667 -133.5833 293° West 470 541 38,000  Level Anchorage Center
05:52PM 56.4167 -133.8000 293° West 470 541 38,000  Level Anchorage Center
05:53PM 56.4667 -134.0333 291° West 480 552 38,000  Level Anchorage Center
05:54PM 56.5167 -134.2500 293° West 470 541 38,000  Level Anchorage Center
05:55PM 56.5667 -134.4667 293° West 470 541 38,000  Level Anchorage Center
05:56PM 56.6167 -134.6833 293° West 470 541 38,000  Level Anchorage Center
05:57PM 56.6500 -134.9000 286° West 470 541 38,000  Level Anchorage Center
05:58PM 56.7000 -135.1333 291° West 470 541 38,000  Level Anchorage Center
05:59PM 56.7500 -135.3500 293° West 470 541 38,000  Level Anchorage Center
06:00PM 56.8000 -135.5667 293° West 480 552 38,000  Level Anchorage Center
06:01PM 56.8333 -135.8000 285° West 480 552 38,000  Level Anchorage Center
06:02PM 56.8833 -136.0000 295° West 470 541 38,000  Level Anchorage Center
06:02PM 56.9333 -136.2333 292° West 460 529 38,000  Level Vancouver Center
06:03PM 56.9667 -136.4667 285° West 460 529 38,000  Level Vancouver Center
06:05PM 57.0333 -136.7000 298° West 460 529 38,000  Level Anchorage Center
06:06PM 57.0667 -136.9167 286° West 450 518 38,000  Level Anchorage Center
06:06PM 57.1000 -137.1333 286° West 460 529 38,000  Level Vancouver Center
06:07PM 57.1333 -137.3667 285° West 460 529 38,000  Level Vancouver Center
06:08PM 57.1833 -137.5667 295° West 460 529 38,000  Level Vancouver Center
06:09PM 57.2333 -137.8000 292° West 460 529 38,000  Level Vancouver Center
06:10PM 57.2667 -138.0000 287° West 460 529 38,000  Level Vancouver Center
06:11PM 57.3167 -138.2333 292° West 460 529 38,000  Level Vancouver Center
06:12PM 57.3333 -138.4667 278° West 460 529 38,000  Level Vancouver Center
06:13PM 57.3833 -138.6667 295° West 460 529 38,000  Level Vancouver Center
06:15PM 57.4333 -138.8667 295° West 450 518 38,000  Level Anchorage Center
06:16PM 57.4833 -139.1333 289° West 450 518 38,000  Level Anchorage Center
06:17PM 57.5167 -139.3333 287° West 460 529 38,000  Level Anchorage Center
06:18PM 57.5500 -139.5667 285° West 450 518 38,000  Level Anchorage Center
06:19PM 57.6000 -139.7833 293° West 450 518 38,000  Level Anchorage Center
06:20PM 57.6333 -140.0167 285° West 450 518 38,000  Level Anchorage Center
06:21PM 57.6667 -140.2333 286° West 450 518 38,000  Level Anchorage Center
06:23PM 57.7333 -140.6833 286° West 440 506 38,000  Level Anchorage Center
06:24PM 57.7833 -140.9000 293° West 450 518 38,000  Level Anchorage Center
06:25PM 57.8167 -141.1333 285° West 440 506 38,000  Level Anchorage Center
06:26PM 57.8500 -141.3500 286° West 440 506 38,000  Level Anchorage Center
06:27PM 57.8833 -141.5833 285° West 440 506 38,000  Level Anchorage Center
06:28PM 57.9167 -141.8000 286° West 440 506 38,000  Level Anchorage Center
06:29PM 57.9500 -142.0333 285° West 450 518 38,000  Level Anchorage Center
06:30PM 57.9833 -142.2500 286° West 450 518 38,000  Level Anchorage Center
06:31PM 58.0167 -142.4833 285° West 450 518 38,000  Level Anchorage Center
06:32PM 58.0500 -142.7167 285° West 450 518 38,000  Level Anchorage Center
06:33PM 58.0833 -142.9500 285° West 450 518 38,000  Level Anchorage Center
06:34PM 58.1000 -143.1500 279° West 450 518 38,000  Level Anchorage Center
06:35PM 58.1333 -143.3833 285° West 440 506 38,000  Level Anchorage Center
06:36PM 58.1667 -143.6000 286° West 440 506 38,000  Level Anchorage Center
06:37PM 58.2000 -143.8333 285° West 440 506 38,000  Level Anchorage Center
06:38PM 58.2333 -144.0500 286° West 440 506 38,000  Level Anchorage Center
06:39PM 58.2500 -144.2833 278° West 450 518 38,000  Level Anchorage Center
06:40PM 58.2833 -144.5167 285° West 440 506 38,000  Level Anchorage Center
06:41PM 58.3167 -144.7333 286° West 430 495 38,000  Level Anchorage Center
06:42PM 58.3333 -144.9667 278° West 440 506 38,000  Level Anchorage Center
06:43PM 58.3667 -145.2000 285° West 430 495 38,000  Level Anchorage Center
06:44PM 58.4000 -145.4167 286° West 440 506 38,000  Level Anchorage Center
06:45PM 58.4167 -145.6500 278° West 440 506 38,000  Level Anchorage Center
06:46PM 58.4500 -145.8833 285° West 440 506 38,000  Level Anchorage Center
06:47PM 58.4667 -146.1167 278° West 440 506 38,000  Level Anchorage Center
06:48PM 58.5000 -146.3667 284° West 450 518 38,000  Level Anchorage Center
06:49PM 58.5333 -146.6000 285° West 460 529 38,000  Level Anchorage Center
06:50PM 58.5500 -146.8333 278° West 450 518 38,000  Level Anchorage Center
06:51PM 58.5833 -147.0833 284° West 460 529 38,000  Level Anchorage Center
06:52PM 58.6000 -147.3333 277° West 460 529 38,000  Level Anchorage Center
06:53PM 58.6333 -147.5667 285° West 460 529 38,000  Level Anchorage Center
06:58PM 58.7700 -148.9930 285° West 467 537 38,000  Level FlightAware
06:59PM 58.7820 -149.1380 279° West 468 539 38,000  Level FlightAware
06:59PM 58.7940 -149.2800 279° West 470 541 38,000  Level FlightAware
07:00PM 58.8080 -149.4380 280° West 470 541 38,000 120 Level FlightAware
07:01PM 58.8190 -149.5740 279° West 470 541 38,200 600 Climbing FlightAware
07:01PM 58.8310 -149.7210 279° West 469 540 38,700 660 Climbing FlightAware
07:02PM 58.8430 -149.8640 279° West 472 543 39,000 420 Climbing FlightAware
07:02PM 58.8540 -150.0110 278° West 475 547 39,200 660 Climbing FlightAware
07:03PM 58.8660 -150.1620 279° West 470 541 39,800 600 Climbing FlightAware
07:04PM 58.8750 -150.2790 279° West 469 540 39,900 60 Climbing FlightAware
07:04PM 58.8840 -150.4060 278° West 469 540 39,900 60 Level FlightAware
07:05PM 58.8980 -150.5820 279° West 468 539 40,000 60 Climbing FlightAware
07:05PM 58.9100 -150.7480 278° West 470 541 40,000  Level FlightAware
07:06PM 58.9220 -150.8970 279° West 470 541 40,000  Level FlightAware
07:07PM 58.9320 -151.0450 278° West 470 541 40,000  Level FlightAware
07:07PM 58.9440 -151.2240 277° West 468 539 40,000  Level FlightAware
07:08PM 58.9570 -151.4180 277° West 468 539 40,000  Level FlightAware
07:09PM 58.9690 -151.5800 278° West 467 537 40,000  Level FlightAware
07:09PM 58.9790 -151.7300 277° West 467 537 40,000  Level FlightAware
07:10PM 58.9860 -151.8490 277° West 467 537 40,000  Level FlightAware
07:11PM 58.9980 -152.0250 278° West 468 539 40,000  Level FlightAware
07:11PM 59.0110 -152.2440 277° West 469 540 40,000  Level FlightAware
07:12PM 59.0170 -152.3720 275° West 469 540 40,000  Level FlightAware
07:13PM 59.0240 -152.5010 276° West 469 540 40,000  Level FlightAware
07:13PM 59.0380 -152.6920 278° West 472 543 40,000  Level FlightAware
07:14PM 59.0450 -152.8320 276° West 472 543 40,000  Level FlightAware
07:14PM 59.0520 -152.9610 276° West 472 543 40,000  Level FlightAware
07:15PM 59.0640 -153.1590 277° West 478 550 40,000  Level FlightAware
07:16PM 59.0770 -153.3940 276° West 476 548 40,000  Level FlightAware
07:17PM 59.0860 -153.5890 275° West 475 547 40,000  Level FlightAware
07:17PM 59.0920 -153.7190 275° West 475 547 40,000  Level FlightAware
07:18PM 59.0980 -153.8500 275° West 475 547 40,000  Level FlightAware
07:19PM 59.1030 -153.9800 274° West 475 547 40,000  Level FlightAware
07:19PM 59.1090 -154.1110 275° West 475 547 40,000  Level FlightAware
07:20PM 59.1150 -154.2410 275° West 475 547 40,000  Level FlightAware
07:20PM 59.1210 -154.3720 275° West 475 547 40,000  Level FlightAware
07:21PM 59.1270 -154.5020 275° West 475 547 40,000  Level FlightAware
07:22PM 59.1330 -154.6370 275° West 475 547 40,000  Level FlightAware
07:22PM 59.1390 -154.7670 275° West 475 547 40,000  Level FlightAware
07:23PM 59.1450 -154.9010 275° West 475 547 40,000  Level FlightAware
07:23PM 59.1500 -155.0320 274° West 475 547 40,000  Level FlightAware
07:24PM 59.1560 -155.1630 275° West 475 547 40,000  Level FlightAware
07:25PM 59.1620 -155.2930 275° West 475 547 40,000  Level FlightAware
07:25PM 59.1680 -155.4240 275° West 475 547 40,000  Level FlightAware
07:26PM 59.1740 -155.5620 275° West 475 547 40,000  Level FlightAware
07:27PM 59.1833 -156.0667 275° West 470 541 40,000  Level Anchorage Center
07:28PM 59.1833 -156.3833 270° West 470 541 40,000  Level Anchorage Center
07:29PM 59.2000 -156.6333 278° West 480 552 40,000  Level Anchorage Center
07:30PM 59.2000 -156.9000 270° West 480 552 40,000  Level Anchorage Center
07:31PM 59.2167 -157.1667 277° West 480 552 40,000  Level Anchorage Center
07:32PM 59.2167 -157.4333 270° West 480 552 40,000  Level Anchorage Center
07:33PM 59.2167 -157.6833 270° West 480 552 40,000  Level Anchorage Center
07:34PM 59.2333 -157.9500 277° West 480 552 40,000  Level Anchorage Center
07:35PM 59.2333 -158.2167 270° West 490 564 40,000  Level Anchorage Center
07:36PM 59.2333 -158.4833 270° West 490 564 40,000  Level Anchorage Center
07:37PM 59.2333 -158.7500 270° West 480 552 40,000  Level Anchorage Center
07:38PM 59.2333 -159.0167 270° West 490 564 40,000  Level Anchorage Center
07:39PM 59.2333 -159.2833 270° West 480 552 40,000  Level Anchorage Center
07:40PM 59.2500 -159.5333 278° West 480 552 40,000  Level Anchorage Center
07:41PM 59.2500 -159.8000 270° West 480 552 40,000  Level Anchorage Center
07:42PM 59.2500 -160.0667 270° West 480 552 40,000  Level Anchorage Center
07:43PM 59.2500 -160.3333 270° West 490 564 40,000  Level Anchorage Center
07:44PM 59.2500 -160.5833 270° West 480 552 40,000  Level Anchorage Center
07:45PM 59.2500 -160.8500 270° West 480 552 40,000  Level Anchorage Center
07:46PM 59.2500 -161.1167 270° West 480 552 40,000  Level Anchorage Center
07:47PM 59.2333 -161.3833 263° West 480 552 40,000  Level Anchorage Center
07:48PM 59.2333 -161.6500 270° West 480 552 40,000  Level Anchorage Center
07:49PM 59.2333 -161.9167 270° West 490 564 40,000  Level Anchorage Center
07:50PM 59.2333 -162.1833 270° West 480 552 40,000  Level Anchorage Center
07:51PM 59.2333 -162.4500 270° West 490 564 40,000  Level Anchorage Center
07:52PM 59.2167 -162.7000 263° West 480 552 40,000  Level Anchorage Center
07:53PM 59.2167 -163.0167 270° West 480 552 40,000  Level Anchorage Center
07:54PM 59.2000 -163.2833 263° West 480 552 40,000  Level Anchorage Center
07:55PM 59.2000 -163.5500 270° West 480 552 40,000  Level Anchorage Center
07:56PM 59.2000 -163.8000 270° West 480 552 40,000  Level Anchorage Center
07:57PM 59.1833 -164.0667 263° West 480 552 40,000  Level Anchorage Center
07:58PM 59.1833 -164.3333 270° West 480 552 40,000  Level Anchorage Center
07:59PM 59.1667 -164.6000 263° West 480 552 40,000  Level Anchorage Center
08:00PM 59.1667 -164.8667 270° West 490 564 40,000  Level Anchorage Center
08:01PM 59.1500 -165.1333 263° West 490 564 40,000  Level Anchorage Center
08:02PM 59.1333 -165.3833 263° West 480 552 40,000  Level Anchorage Center
08:03PM 59.1333 -165.6500 270° West 480 552 40,000  Level Anchorage Center
08:04PM 59.1167 -165.9167 263° West 480 552 40,000  Level Anchorage Center
08:05PM 59.1000 -166.1833 263° West 480 552 40,000  Level Anchorage Center
08:06PM 59.0833 -166.4833 264° West 470 541 40,000  Level Anchorage Center
08:07PM 59.0833 -166.7500 270° West 480 552 40,000  Level Anchorage Center
08:08PM 59.0667 -167.0000 263° West 470 541 40,000  Level Anchorage Center
08:09PM 59.0500 -167.2667 263° West 470 541 40,000  Level Anchorage Center
08:10PM 59.0333 -167.5167 263° West 480 552 40,000  Level Anchorage Center
08:11PM 59.0167 -167.7833 263° West 490 564 40,000  Level Anchorage Center
08:12PM 59.0000 -168.0500 263° West 480 552 40,000  Level Anchorage Center
08:13PM 58.9833 -168.3167 263° West 490 564 40,000  Level Anchorage Center
08:14PM 58.9667 -168.5833 263° West 480 552 40,000  Level Anchorage Center
08:15PM 58.9500 -168.8333 263° West 490 564 40,000  Level Anchorage Center
08:16PM 58.9333 -169.1000 263° West 490 564 40,000  Level Anchorage Center
08:17PM 58.9167 -169.3667 263° West 490 564 40,000  Level Anchorage Center
08:18PM 58.9000 -169.6167 263° West 490 564 40,000  Level Anchorage Center
08:19PM 58.8833 -169.8833 263° West 490 564 40,000  Level Anchorage Center
08:20PM 58.8500 -170.1500 257° West 480 552 40,000  Level Anchorage Center
08:21PM 58.8333 -170.4000 263° West 480 552 40,000  Level Anchorage Center
08:22PM 58.8167 -170.6667 263° West 480 552 40,000  Level Anchorage Center
08:23PM 58.7833 -170.9167 256° West 470 541 40,000  Level Anchorage Center
08:24PM 58.7667 -171.1667 263° West 470 541 40,000  Level Anchorage Center
08:25PM 58.7333 -171.4167 256° West 470 541 40,000  Level Anchorage Center
08:26PM 58.6833 -171.6500 248° West 470 541 40,000  Level Anchorage Center
08:27PM 58.6333 -171.9000 249° West 470 541 40,000  Level Anchorage Center
08:28PM 58.6000 -172.1333 255° West 480 552 40,000  Level Anchorage Center
08:29PM 58.5500 -172.3667 248° West 470 541 40,000  Level Anchorage Center
08:30PM 58.5000 -172.6167 249° West 480 552 40,000  Level Anchorage Center
08:31PM 58.4500 -172.8500 248° West 480 552 40,000  Level Anchorage Center
08:32PM 58.4000 -173.0833 248° West 480 552 40,000  Level Anchorage Center
08:33PM 58.3333 -173.3333 243° Southwest 480 552 40,000  Level Anchorage Center
08:34PM 58.2833 -173.5667 248° West 490 564 40,000  Level Anchorage Center
08:35PM 58.2333 -173.8000 248° West 480 552 40,000  Level Anchorage Center
08:36PM 58.1833 -174.0500 249° West 490 564 40,000  Level Anchorage Center
08:37PM 58.1333 -174.2833 248° West 480 552 40,000  Level Anchorage Center
08:38PM 58.0833 -174.5167 248° West 480 552 40,000  Level Anchorage Center
08:39PM 58.0167 -174.7667 243° Southwest 490 564 40,000  Level Anchorage Center
08:40PM 57.9667 -175.0000 248° West 490 564 40,000  Level Anchorage Center
08:41PM 57.9167 -175.2167 247° West 480 552 40,000  Level Anchorage Center
08:42PM 57.8500 -175.4500 242° Southwest 480 552 40,000  Level Anchorage Center
08:43PM 57.8000 -175.6833 248° West 490 564 40,000  Level Anchorage Center
08:44PM 57.7500 -175.9167 248° West 480 552 40,000  Level Anchorage Center
08:45PM 57.6833 -176.1500 242° Southwest 480 552 40,000  Level Anchorage Center
08:46PM 57.6333 -176.3667 247° West 480 552 40,000  Level Anchorage Center
08:47PM 57.5833 -176.5500 243° Southwest 480 552 40,000  Level Anchorage Center
08:48PM 57.5333 -176.8000 245° Southwest 481 554 40,000  Level Anchorage Center
08:51PM 57.3833 -177.4333 244° Southwest 477 549 40,000  Level Anchorage Center
08:55PM 57.1308 -178.3508 244° Southwest 481 554 40,000  Level FlightAware Transoceanic
08:56PM 57.0717 -178.5696 243° Southwest 481 554 40,000  Level FlightAware Transoceanic
08:57PM 57.0123 -178.7876 243° Southwest 481 554 40,000  Level FlightAware Transoceanic
08:58PM 56.9787 -178.9446 243° Southwest 477 549 40,000  Level FlightAware Transoceanic
08:59PM 56.9194 -179.1578 243° Southwest 477 549 40,000  Level FlightAware Transoceanic
09:00PM 56.8598 -179.3703 243° Southwest 477 549 40,000  Level FlightAware Transoceanic
09:00PM 56.8167 -179.5167 243° Southwest 474 545 40,000  Level Anchorage Center
09:01PM 56.7998 -179.5822 243° Southwest 477 549 40,000  Level FlightAware Transoceanic
09:02PM 56.7394 -179.7933 242° Southwest 477 549 40,000  Level FlightAware Transoceanic
09:03PM 56.6787 179.9962 242° Southwest 477 549 40,000  Level FlightAware Transoceanic
09:04PM 56.6177 179.7864 242° Southwest 477 549 40,000  Level FlightAware Transoceanic
09:05PM 56.5563 179.5773 242° Southwest 477 549 40,000  Level FlightAware Transoceanic
09:06PM 56.4945 179.3688 242° Southwest 477 549 40,000  Level FlightAware Transoceanic
09:07PM 56.4472 179.2155 242° Southwest 474 545 40,000  Level FlightAware Transoceanic
09:08PM 56.3844 179.0066 241° Southwest 474 545 40,000  Level FlightAware Transoceanic
09:09PM 56.3212 178.7984 241° Southwest 474 545 40,000  Level FlightAware Transoceanic
09:10PM 56.2577 178.5909 241° Southwest 474 545 40,000 600 Level FlightAware Transoceanic
09:10PM 56.2167 178.4667 241° Southwest 477 549 41,000  Climbing Anchorage Center
09:11PM 56.1938 178.3840 241° Southwest 474 545 40,000 -720 Descending FlightAware Transoceanic
09:12PM 56.1296 178.1779 241° Southwest 474 545 40,000  Level FlightAware Transoceanic
09:13PM 56.0651 177.9724 241° Southwest 474 545 40,000  Level FlightAware Transoceanic
09:14PM 56.0002 177.7677 240° Southwest 474 545 40,000  Level FlightAware Transoceanic
09:15PM 55.9350 177.5636 240° Southwest 474 545 40,000  Level FlightAware Transoceanic
09:16PM 55.8694 177.3602 240° Southwest 474 545 40,000 480 Level FlightAware Transoceanic
09:17PM 55.7710 177.0646 240° Southwest 477 549 41,000 600 Climbing FlightAware Transoceanic
09:17PM 55.7500 177.0000 239° Southwest 480 552 41,000  Level Anchorage Center
09:18PM 55.7060 176.8669 240° Southwest 477 549 41,000  Level FlightAware Transoceanic
09:19PM 55.6407 176.6699 239° Southwest 477 549 41,000  Level FlightAware Transoceanic
09:19PM 55.6167 176.6000 240° Southwest 480 552 41,000  Level Anchorage Center
09:20PM 55.5751 176.4736 239° Southwest 477 549 41,000  Level FlightAware Transoceanic
09:20PM 55.5500 176.4333 235° Southwest 470 541 41,000  Level Anchorage Center
09:21PM 55.5092 176.2779 239° Southwest 477 549 41,000  Level FlightAware Transoceanic
09:21PM 55.4833 176.2167 242° Southwest 470 541 41,000  Level Anchorage Center
09:22PM 55.4430 176.0829 239° Southwest 477 549 41,000  Level FlightAware Transoceanic
09:22PM 55.4167 176.0000 242° Southwest 470 541 41,000  Level Anchorage Center
09:23PM 55.3500 175.8167 237° Southwest 470 541 41,000  Level Anchorage Center
09:24PM 55.2833 175.6167 240° Southwest 470 541 41,000  Level Anchorage Center
09:25PM 55.2167 175.4500 235° Southwest 470 541 41,000  Level Anchorage Center
09:26PM 55.1333 175.2167 238° Southwest 480 552 41,000  Level Anchorage Center
09:27PM 55.0833 175.0500 242° Southwest 470 541 41,000  Level Anchorage Center
09:28PM 55.0000 174.8333 236° Southwest 480 552 41,000  Level Anchorage Center
09:29PM 54.9500 174.6667 242° Southwest 470 541 41,000  Level Anchorage Center
09:30PM 54.8667 174.4667 234° Southwest 470 541 41,000  Level Anchorage Center
09:31PM 54.8000 174.2500 242° Southwest 460 529 41,000  Level Anchorage Center
09:32PM 54.7333 174.0833 235° Southwest 470 541 41,000  Level Anchorage Center
09:33PM 54.6500 173.8667 236° Southwest 470 541 41,000  Level Anchorage Center
09:34PM 54.6000 173.7167 240° Southwest 470 541 41,000  Level Anchorage Center
09:35PM 54.5167 173.5167 234° Southwest 460 529 41,000  Level Anchorage Center
09:36PM 54.4500 173.3333 238° Southwest 480 552 41,000  Level Anchorage Center
09:37PM 54.3667 173.1333 234° Southwest 470 541 41,000  Level Anchorage Center
09:38PM 54.3000 172.9333 240° Southwest 480 552 41,000  Level Anchorage Center
09:39PM 54.2333 172.7667 236° Southwest 460 529 41,000  Level Anchorage Center
09:40PM 54.1500 172.5667 235° Southwest 470 541 41,000  Level Anchorage Center
09:41PM 54.0833 172.4167 233° Southwest 470 541 41,000  Level Anchorage Center
09:42PM 54.0000 172.2167 235° Southwest 480 552 41,000  Level Anchorage Center
09:43PM 53.9333 172.0500 236° Southwest 480 552 41,000  Level Anchorage Center
09:44PM 53.8500 171.8667 232° Southwest 470 541 41,000  Level Anchorage Center
09:45PM 53.7667 171.6667 235° Southwest 440 506 41,000  Level Anchorage Center
09:46PM 53.7167 171.5167 241° Southwest 460 529 41,000  Level Anchorage Center
09:47PM 53.6333 171.3333 233° Southwest 450 518 41,000  Level Anchorage Center
09:48PM 53.5667 171.1833 233° Southwest 460 529 41,000  Level Anchorage Center
09:49PM 53.4833 170.9833 235° Southwest 460 529 41,000  Level Anchorage Center
09:50PM 53.4167 170.8333 233° Southwest 460 529 41,000  Level Anchorage Center
09:51PM 53.3333 170.6500 233° Southwest 460 529 41,000  Level Anchorage Center
09:52PM 53.2500 170.4667 233° Southwest 460 529 41,000  Level Anchorage Center
09:53PM 53.1833 170.3167 233° Southwest 470 541 41,000  Level Anchorage Center
09:54PM 53.1000 170.1333 233° Southwest 450 518 41,000  Level Anchorage Center
09:55PM 53.0333 170.0000 230° Southwest 470 541 41,000  Level Anchorage Center
09:56PM 52.9667 169.8167 239° Southwest 450 518 41,000  Level Anchorage Center
09:57PM 52.9167 169.6500 244° Southwest 450 518 41,000  Level Anchorage Center
09:58PM 52.8500 169.4500 241° Southwest 450 518 41,000  Level Anchorage Center
09:59PM 52.8000 169.3000 241° Southwest 450 518 41,000  Level Anchorage Center
10:00PM 52.7333 169.1000 241° Southwest 450 518 41,000  Level Anchorage Center
10:01PM 52.6500 168.9000 236° Southwest 470 541 41,000  Level Anchorage Center
10:02PM 52.6000 168.7500 241° Southwest 440 506 41,000  Level Anchorage Center
10:03PM 52.5333 168.5667 239° Southwest 460 529 41,000  Level Anchorage Center
10:04PM 52.4833 168.4000 244° Southwest 440 506 41,000  Level Anchorage Center
10:05PM 52.4167 168.2167 239° Southwest 450 518 41,000  Level Anchorage Center
10:06PM 52.3500 168.0667 234° Southwest 460 529 41,000  Level Anchorage Center
10:07PM 52.3000 167.8833 246° West 430 495 41,000  Level Anchorage Center
10:09PM 52.1833 167.5500 240° Southwest 450 518 41,000  Level Anchorage Center
10:10PM 52.1167 167.4000 234° Southwest 440 506 41,000  Level Anchorage Center
10:12PM 52.0296 167.1625 239° Southwest  Level FlightAware Approximate
10:17PM 51.6833 166.2333 238° Southwest 422 486 41,000  Level Anchorage Center
10:19PM 51.5648 165.9305 239° Southwest  Level FlightAware Approximate
10:20PM 51.4974 165.7566 238° Southwest  Level FlightAware Approximate
10:21PM 51.4297 165.5832 238° Southwest  Level FlightAware Approximate
10:22PM 51.3624 165.4095 238° Southwest  Level FlightAware Approximate
10:22PM 51.4333 165.5500 238° Southwest 425 489 41,000  Level Anchorage Center
10:23PM 51.3665 165.4174 238° Southwest 422 486 41,000  Level FlightAware Transoceanic
10:24PM 51.3025 165.2556 238° Southwest 422 486 41,000  Level FlightAware Transoceanic
10:25PM 51.2382 165.0942 237° Southwest 422 486 41,000  Level FlightAware Transoceanic
10:26PM 51.1737 164.9333 237° Southwest 422 486 41,000  Level FlightAware Transoceanic
10:27PM 51.1090 164.7728 237° Southwest 422 486 41,000  Level FlightAware Transoceanic
10:27PM 51.1000 164.7167 237° Southwest 412 474 41,000  Level Anchorage Center
10:28PM 51.0464 164.5882 237° Southwest 425 489 41,000  Level FlightAware Transoceanic
10:29PM 50.9812 164.4295 237° Southwest 425 489 41,000  Level FlightAware Transoceanic
10:29PM 50.9500 164.3833 237° Southwest 408 470 41,000  Level Anchorage Center
10:30PM 50.9157 164.2712 237° Southwest 425 489 41,000  Level FlightAware Transoceanic
10:31PM 50.8500 164.1134 237° Southwest 425 489 41,000  Level FlightAware Transoceanic
10:32PM 50.7841 163.9560 236° Southwest 425 489 41,000  Level FlightAware Transoceanic
10:33PM 50.7210 163.8038 236° Southwest 412 474 41,000  Level FlightAware Transoceanic
10:34PM 50.6571 163.6531 236° Southwest 412 474 41,000  Level FlightAware Transoceanic
10:35PM 50.5733 163.4815 236° Southwest 408 470 41,000  Level FlightAware Transoceanic
10:36PM 50.5098 163.3326 236° Southwest 408 470 41,000  Level FlightAware Transoceanic
10:37PM 50.4462 163.1841 236° Southwest 408 470 41,000  Level FlightAware Transoceanic
10:37PM 50.5000 163.3000 236° Southwest 408 470 41,000  Level Anchorage Center
10:38PM 50.3824 163.0360 236° Southwest 408 470 41,000  Level FlightAware Transoceanic
10:39PM 50.3184 162.8883 236° Southwest 408 470 41,000  Level FlightAware Transoceanic
10:40PM 50.2542 162.7410 236° Southwest 408 470 41,000  Level FlightAware Transoceanic
10:41PM 50.1898 162.5941 236° Southwest 408 470 41,000  Level FlightAware Transoceanic
10:42PM 50.1252 162.4476 235° Southwest 408 470 41,000  Level FlightAware Transoceanic
10:43PM 50.1002 162.3843 235° Southwest 408 470 41,000  Level FlightAware Transoceanic
10:44PM 50.0329 162.2332 235° Southwest 408 470 41,000  Level FlightAware Transoceanic
10:45PM 49.9653 162.0825 235° Southwest 408 470 41,000  Level FlightAware Transoceanic
10:46PM 49.8976 161.9322 235° Southwest 408 470 41,000  Level FlightAware Transoceanic
10:46PM 49.8833 161.9000 235° Southwest 411 473 41,000  Level Anchorage Center
10:47PM 49.8297 161.7824 235° Southwest 408 470 41,000  Level FlightAware Transoceanic
10:48PM 49.7616 161.6329 235° Southwest 408 470 41,000  Level FlightAware Transoceanic
10:49PM 49.6933 161.4839 235° Southwest 408 470 41,000  Level FlightAware Transoceanic
10:50PM 49.6248 161.3353 234° Southwest 408 470 41,000  Level FlightAware Transoceanic
10:51PM 49.5561 161.1872 234° Southwest 408 470 41,000  Level FlightAware Transoceanic
10:52PM 49.4794 161.0223 234° Southwest 411 473 41,000  Level FlightAware Transoceanic
10:52PM 49.4833 161.0333 234° Southwest 418 481 41,000  Level Anchorage Center
10:53PM 49.4115 160.8775 234° Southwest 411 473 41,000  Level FlightAware Transoceanic
10:54PM 49.3433 160.7330 234° Southwest 411 473 41,000  Level FlightAware Transoceanic
10:55PM 49.2750 160.5889 234° Southwest 411 473 41,000  Level FlightAware Transoceanic
10:56PM 49.2065 160.4453 234° Southwest 411 473 41,000  Level FlightAware Transoceanic
10:56PM 49.2333 160.5167 235° Southwest 416 479 41,000  Level Anchorage Center
10:57PM 49.1379 160.3020 234° Southwest 411 473 41,000  Level FlightAware Transoceanic
10:58PM 49.0696 160.1607 234° Southwest 418 481 41,000  Level FlightAware Transoceanic
10:59PM 49.0000 160.0167 233° Southwest 418 481 41,000  Level FlightAware Transoceanic
11:00PM 48.9269 159.8675 233° Southwest 418 481 41,000  Level FlightAware Transoceanic
11:01PM 48.8535 159.7187 233° Southwest 418 481 41,000  Level FlightAware Transoceanic
11:02PM 48.7800 159.5704 233° Southwest 416 479 41,000  Level FlightAware Transoceanic
11:03PM 48.7063 159.4225 233° Southwest 416 479 41,000  Level FlightAware Transoceanic
11:04PM 48.6324 159.2751 233° Southwest 416 479 41,000  Level FlightAware Transoceanic
11:05PM 48.5583 159.1280 233° Southwest 416 479 41,000  Level FlightAware Transoceanic
11:06PM 48.4841 158.9815 233° Southwest 416 479 41,000  Level FlightAware Transoceanic
11:07PM 48.4096 158.8353 232° Southwest 416 479 41,000  Level FlightAware Transoceanic
11:08PM 48.3350 158.6896 232° Southwest 416 479 41,000  Level FlightAware Transoceanic
11:09PM 48.2602 158.5443 232° Southwest 416 479 41,000  Level FlightAware Transoceanic
11:10PM 48.1852 158.3994 232° Southwest 416 479 41,000  Level FlightAware Transoceanic
11:11PM 48.1100 158.2549 232° Southwest 416 479 41,000  Level FlightAware Transoceanic
11:12PM 48.0346 158.1109 232° Southwest 416 479 41,000  Level FlightAware Transoceanic
11:13PM 47.9590 157.9673 232° Southwest 416 479 41,000  Level FlightAware Transoceanic
11:14PM 47.8833 157.8241 232° Southwest 416 479 41,000  Level FlightAware Transoceanic
11:15PM 47.8074 157.6813 232° Southwest 416 479 41,000  Level FlightAware Transoceanic
11:16PM 47.7313 157.5390 231° Southwest 416 479 41,000  Level FlightAware Transoceanic
11:17PM 47.6551 157.3970 231° Southwest 416 479 41,000  Level FlightAware Transoceanic
11:18PM 47.5787 157.2555 231° Southwest 416 479 41,000  Level FlightAware Transoceanic
11:19PM 47.5021 157.1144 231° Southwest 416 479 41,000  Level FlightAware Transoceanic
11:20PM 47.4253 156.9737 231° Southwest 416 479 41,000  Level FlightAware Transoceanic
11:21PM 47.3483 156.8334 231° Southwest 416 479 41,000  Level FlightAware Transoceanic
11:22PM 47.2712 156.6935 231° Southwest 416 479 41,000  Level FlightAware Transoceanic
11:23PM 47.1939 156.5540 231° Southwest 416 479 41,000  Level FlightAware Transoceanic
11:24PM 47.1165 156.4149 231° Southwest 416 479 41,000  Level FlightAware Transoceanic
11:25PM 47.0388 156.2763 231° Southwest 416 479 41,000  Level FlightAware Transoceanic
11:26PM 46.9611 156.1380 230° Southwest 416 479 41,000  Level FlightAware Transoceanic
11:27PM 46.8831 156.0002 230° Southwest 416 479 41,000  Level FlightAware Transoceanic
11:28PM 46.8050 155.8627 230° Southwest 416 479 41,000  Level FlightAware Transoceanic
11:29PM 46.7267 155.7256 230° Southwest 416 479 41,000  Level FlightAware Transoceanic
11:30PM 46.6483 155.5890 230° Southwest 416 479 41,000  Level FlightAware Transoceanic
11:31PM 46.5696 155.4527 230° Southwest 416 479 41,000  Level FlightAware Transoceanic
11:32PM 46.4909 155.3168 230° Southwest 416 479 41,000  Level FlightAware Transoceanic
11:33PM 46.4119 155.1814 230° Southwest 416 479 41,000  Level FlightAware Transoceanic
11:34PM 46.3328 155.0463 230° Southwest 416 479 41,000  Level FlightAware Transoceanic
11:35PM 46.2536 154.9116 230° Southwest 416 479 41,000  Level FlightAware Transoceanic
11:36PM 46.1742 154.7773 229° Southwest 416 479 41,000  Level FlightAware Transoceanic
11:37PM 46.0946 154.6434 229° Southwest 416 479 41,000  Level FlightAware Transoceanic
11:38PM 46.0149 154.5098 229° Southwest 416 479 41,000  Level FlightAware Transoceanic
11:39PM 45.9350 154.3767 229° Southwest 416 479 41,000  Level FlightAware Transoceanic
11:40PM 45.8550 154.2439 229° Southwest 416 479 41,000  Level FlightAware Transoceanic
11:41PM 45.7748 154.1115 229° Southwest 416 479 41,000  Level FlightAware Transoceanic
11:42PM 45.6945 153.9795 229° Southwest 416 479 41,000  Level FlightAware Transoceanic
11:43PM 45.6140 153.8479 229° Southwest 416 479 41,000  Level FlightAware Transoceanic
11:44PM 45.5204 153.7217 223° Southwest  Level FlightAware Approximate
11:45PM 45.5154 153.7147 228° Southwest  Level FlightAware Approximate
11:46PM 45.4299 153.5776 228° Southwest  Level FlightAware Approximate
11:47PM 45.3442 153.4409 228° Southwest  Level FlightAware Approximate
11:48PM 45.2583 153.3047 228° Southwest  Level FlightAware Approximate
11:49PM 45.1723 153.1689 228° Southwest  Level FlightAware Approximate
11:50PM 45.0861 153.0334 228° Southwest  Level FlightAware Approximate
11:51PM 44.9998 152.8984 228° Southwest  Level FlightAware Approximate
11:52PM 44.9133 152.7638 228° Southwest  Level FlightAware Approximate
11:53PM 44.8266 152.6296 228° Southwest  Level FlightAware Approximate
11:54PM 44.7398 152.4958 228° Southwest  Level FlightAware Approximate
11:55PM 44.6528 152.3624 228° Southwest  Level FlightAware Approximate
11:56PM 44.5657 152.2293 227° Southwest  Level FlightAware Approximate
11:57PM 44.4784 152.0967 227° Southwest  Level FlightAware Approximate
11:58PM 44.3909 151.9645 227° Southwest  Level FlightAware Approximate
11:59PM 44.3034 151.8327 227° Southwest  Level FlightAware Approximate
12:00AM 44.2156 151.7013 227° Southwest  Level FlightAware Approximate
12:01AM 44.1277 151.5702 227° Southwest  Level FlightAware Approximate
12:02AM 44.0397 151.4396 227° Southwest  Level FlightAware Approximate
12:03AM 43.9515 151.3093 227° Southwest  Level FlightAware Approximate
12:04AM 43.8632 151.1795 227° Southwest  Level FlightAware Approximate
12:05AM 43.7747 151.0500 227° Southwest  Level FlightAware Approximate
12:06AM 43.6861 150.9209 227° Southwest  Level FlightAware Approximate
12:07AM 43.5973 150.7922 226° Southwest  Level FlightAware Approximate
12:08AM 43.5084 150.6638 226° Southwest  Level FlightAware Approximate
12:09AM 43.4193 150.5359 226° Southwest  Level FlightAware Approximate
12:10AM 43.3301 150.4083 226° Southwest  Level FlightAware Approximate
12:11AM 43.2408 150.2811 226° Southwest  Level FlightAware Approximate
12:12AM 43.1513 150.1542 226° Southwest  Level FlightAware Approximate
12:13AM 43.0617 150.0278 226° Southwest  Level FlightAware Approximate
12:13AM 43.1340 150.1180 226° Southwest 466 536 41,000  Level FlightAware
12:14AM 42.9719 149.9017 226° Southwest  Level FlightAware Approximate
12:14AM 43.0750 150.0350 226° Southwest 465 535 41,000  Level FlightAware
12:14AM 43.0100 149.9430 226° Southwest 463 533 41,000  Level FlightAware
12:15AM 42.9580 149.8710 225° Southwest 464 534 41,000  Level FlightAware
12:15AM 42.9010 149.7910 226° Southwest 464 534 41,000  Level FlightAware
12:16AM 42.8610 149.7350 226° Southwest 463 533 41,000  Level FlightAware
12:17AM 42.7920 149.6390 226° Southwest 462 532 41,000  Level FlightAware
12:17AM 42.7470 149.5750 226° Southwest 462 532 41,000  Level FlightAware
12:18AM 42.6690 149.4690 225° Southwest 461 531 41,000  Level FlightAware
12:19AM 42.6210 149.4040 225° Southwest 462 532 41,000  Level FlightAware
12:19AM 42.5610 149.3210 226° Southwest 461 531 41,000  Level FlightAware
12:20AM 42.5010 149.2400 225° Southwest 461 531 41,000  Level FlightAware
12:21AM 42.4410 149.1570 226° Southwest 460 529 41,000  Level FlightAware
12:21AM 42.3910 149.0890 225° Southwest 461 531 41,000  Level FlightAware
12:22AM 42.3310 149.0080 225° Southwest 458 527 41,000  Level FlightAware
12:22AM 42.2740 148.9310 225° Southwest 457 526 41,000  Level FlightAware
12:23AM 42.2000 148.8310 225° Southwest 456 525 41,000  Level FlightAware
12:24AM 42.1590 148.7760 225° Southwest 456 525 41,000  Level FlightAware
12:24AM 42.1050 148.7030 225° Southwest 456 525 41,000  Level FlightAware
12:25AM 42.0490 148.6280 225° Southwest 456 525 41,000  Level FlightAware
12:26AM 41.9810 148.5370 225° Southwest 456 525 41,000  Level FlightAware
12:26AM 41.9280 148.4670 225° Southwest 454 522 41,000  Level FlightAware
12:27AM 41.8750 148.3960 225° Southwest 454 522 41,000  Level FlightAware
12:27AM 41.8210 148.3250 224° Southwest 454 522 41,000  Level FlightAware
12:28AM 41.7710 148.2580 225° Southwest 458 527 41,000  Level FlightAware
12:29AM 41.7170 148.1880 224° Southwest 452 520 41,000  Level FlightAware
12:29AM 41.6640 148.1200 224° Southwest 453 521 41,000  Level FlightAware
12:30AM 41.6090 148.0490 224° Southwest 452 520 41,000  Level FlightAware
12:30AM 41.5560 147.9810 224° Southwest 451 519 41,000  Level FlightAware
12:31AM 41.5030 147.9130 224° Southwest 451 519 41,000  Level FlightAware
12:31AM 41.4500 147.8450 224° Southwest 451 519 41,000  Level FlightAware
12:32AM 41.3960 147.7760 224° Southwest 451 519 41,000  Level FlightAware
12:33AM 41.3430 147.7080 224° Southwest 452 520 41,000  Level FlightAware
12:33AM 41.2890 147.6400 223° Southwest 453 521 41,000  Level FlightAware
12:34AM 41.2350 147.5720 223° Southwest 454 522 41,000  Level FlightAware
12:34AM 41.1780 147.5000 224° Southwest 454 522 41,000  Level FlightAware
12:35AM 41.1230 147.4300 224° Southwest 455 524 41,000  Level FlightAware
12:35AM 41.0780 147.3740 223° Southwest 455 524 41,000  Level FlightAware
12:36AM 40.9990 147.2740 224° Southwest 454 522 41,000  Level FlightAware
12:37AM 40.9470 147.2090 223° Southwest 461 531 41,000  Level FlightAware
12:38AM 40.8850 147.1310 224° Southwest 454 522 41,000  Level FlightAware
12:38AM 40.8330 147.0660 223° Southwest 459 528 41,000  Level FlightAware
12:39AM 40.7700 146.9890 223° Southwest 461 531 41,000  Level FlightAware
12:39AM 40.7220 146.9290 223° Southwest 461 531 41,000  Level FlightAware
12:40AM 40.6560 146.8480 223° Southwest 464 534 41,000  Level FlightAware
12:41AM 40.5970 146.7750 223° Southwest 464 534 41,000  Level FlightAware
12:41AM 40.5430 146.7080 223° Southwest 464 534 41,000  Level FlightAware
12:42AM 40.4900 146.6440 223° Southwest 463 533 41,000  Level FlightAware
12:42AM 40.4320 146.5730 223° Southwest 464 534 41,000  Level FlightAware
12:43AM 40.3770 146.5050 223° Southwest 466 536 41,000  Level FlightAware
12:44AM 40.3210 146.4370 223° Southwest 465 535 41,000  Level FlightAware
12:44AM 40.2660 146.3700 223° Southwest 464 534 41,000  Level FlightAware
12:45AM 40.1930 146.2820 223° Southwest 464 534 41,000  Level FlightAware
12:46AM 40.1140 146.1860 223° Southwest 464 534 41,000  Level FlightAware
12:47AM 40.0420 146.1010 222° Southwest 464 534 41,000  Level FlightAware
12:47AM 39.9800 146.0240 224° Southwest 464 534 41,000  Level FlightAware
12:48AM 39.9240 145.9580 222° Southwest 465 535 41,000  Level FlightAware
12:48AM 39.8680 145.8910 223° Southwest 460 529 41,000  Level FlightAware
12:49AM 39.8140 145.8260 223° Southwest 460 529 41,000  Level FlightAware
12:50AM 39.7490 145.7490 222° Southwest 460 529 41,000  Level FlightAware
12:50AM 39.7010 145.6920 222° Southwest 460 529 41,000  Level FlightAware
12:51AM 39.6190 145.5940 223° Southwest 460 529 41,000  Level FlightAware
12:52AM 39.5550 145.5200 222° Southwest 469 540 41,000  Level FlightAware
12:52AM 39.4890 145.4410 223° Southwest 464 534 41,000  Level FlightAware
12:53AM 39.4400 145.3840 222° Southwest 463 533 41,000  Level FlightAware
12:54AM 39.3600 145.2900 222° Southwest 463 533 41,000  Level FlightAware
12:54AM 39.3120 145.2340 222° Southwest 464 534 41,000  Level FlightAware
12:55AM 39.2350 145.1450 222° Southwest 471 542 41,000  Level FlightAware
12:56AM 39.1760 145.0760 222° Southwest 464 534 41,000  Level FlightAware
12:56AM 39.1200 145.0120 222° Southwest 465 535 41,000  Level FlightAware
12:57AM 39.0400 144.9180 222° Southwest 471 542 41,000  Level FlightAware
12:58AM 38.9840 144.8540 222° Southwest 472 543 41,000  Level FlightAware
12:58AM 38.9140 144.7740 222° Southwest 472 543 41,000  Level FlightAware
12:59AM 38.8420 144.6910 222° Southwest 472 543 41,000  Level FlightAware
01:00AM 38.7840 144.6240 222° Southwest 473 544 41,000  Level FlightAware
01:00AM 38.7390 144.5730 221° Southwest 473 544 41,000  Level FlightAware
01:01AM 38.6640 144.4880 222° Southwest 474 545 41,000  Level FlightAware
01:01AM 38.6070 144.4230 222° Southwest 475 547 41,000  Level FlightAware
01:02AM 38.5480 144.3560 222° Southwest 475 547 41,000  Level FlightAware
01:03AM 38.4910 144.2920 221° Southwest 474 545 41,000  Level FlightAware
01:03AM 38.4260 144.2180 222° Southwest 471 542 41,000  Level FlightAware
01:04AM 38.3760 144.1620 221° Southwest 471 542 41,000  Level FlightAware
01:04AM 38.3190 144.0980 221° Southwest 471 542 41,000  Level FlightAware
01:05AM 38.2610 144.0340 221° Southwest 471 542 41,000  Level FlightAware
01:05AM 38.2040 143.9700 221° Southwest 471 542 41,000  Level FlightAware
01:06AM 38.1470 143.9060 221° Southwest 474 545 41,000  Level FlightAware
01:07AM 38.0890 143.8420 221° Southwest 471 542 41,000  Level FlightAware
01:07AM 38.0330 143.7790 222° Southwest 470 541 41,000  Level FlightAware
01:08AM 37.9760 143.7150 222° Southwest 469 540 41,000  Level FlightAware
01:08AM 37.9170 143.6510 221° Southwest 468 539 41,000  Level FlightAware
01:09AM 37.8520 143.5790 221° Southwest 467 537 41,000  Level FlightAware
01:10AM 37.8040 143.5250 222° Southwest 467 537 41,000  Level FlightAware
01:10AM 37.7470 143.4620 221° Southwest 462 532 41,000  Level FlightAware
01:10AM 37.7170 143.4280 222° Southwest 462 532 41,000  Level FlightAware
01:11AM 37.6420 143.3440 222° Southwest 461 531 41,000  Level FlightAware
01:12AM 37.5850 143.2810 221° Southwest 461 531 41,000  Level FlightAware
01:12AM 37.5210 143.2090 222° Southwest 468 539 41,000  Level FlightAware
01:13AM 37.4720 143.1550 221° Southwest 460 529 41,000  Level FlightAware
01:14AM 37.4160 143.0930 221° Southwest 459 528 41,000  Level FlightAware
01:14AM 37.3590 143.0320 220° Southwest 465 535 41,000  Level FlightAware
01:15AM 37.2920 142.9870 208° Southwest 466 536 41,000  Level FlightAware
01:15AM 37.2220 142.9510 202° Southwest 468 539 41,000  Level FlightAware
01:16AM 37.1510 142.9150 202° Southwest 468 539 41,000  Level FlightAware
01:16AM 37.0810 142.8800 202° Southwest 468 539 41,000  Level FlightAware
01:17AM 37.0000 142.8390 202° Southwest 469 540 41,000 -120 Level FlightAware
01:18AM 36.9420 142.8100 202° Southwest 466 536 40,900 -600 Descending FlightAware
01:18AM 36.8700 142.7740 202° Southwest 453 521 40,400 -1,200 Descending FlightAware
01:19AM 36.8010 142.7400 202° Southwest 456 525 39,500 -1,680 Descending FlightAware
01:19AM 36.7210 142.6990 202° Southwest 470 541 38,300 -1,740 Descending FlightAware
01:20AM 36.6600 142.6690 202° Southwest 466 536 37,500 -1,680 Descending FlightAware
01:21AM 36.5880 142.6320 202° Southwest 479 551 36,500 -1,740 Descending FlightAware
01:21AM 36.5190 142.5870 208° Southwest 485 558 35,500 -1,920 Descending FlightAware
01:22AM 36.4500 142.5390 209° Southwest 484 557 34,300 -1,740 Descending FlightAware
01:22AM 36.3810 142.4910 209° Southwest 482 555 33,500 -1,380 Descending FlightAware
01:23AM 36.3030 142.4360 210° Southwest 482 555 32,600 -1,320 Descending FlightAware
01:23AM 36.2440 142.3960 209° Southwest 482 555 32,000 -660 Descending FlightAware
01:24AM 36.1760 142.3490 209° Southwest 483 556 31,900 -1,440 Descending FlightAware
01:25AM 36.1100 142.2950 213° Southwest 496 571 30,300 -2,520 Descending FlightAware
01:25AM 36.0660 142.2270 231° Southwest 489 563 29,200 -1,920 Descending FlightAware
01:26AM 36.0390 142.1360 250° West 489 563 28,300 -1,740 Descending FlightAware
01:26AM 36.0390 142.0390 270° West 492 566 27,200 -1,560 Descending FlightAware
01:27AM 36.0480 141.9970 285° West 489 563 27,000 -600 Descending FlightAware
01:27AM 36.0950 141.9020 301° West 491 565 26,700 -660 Descending FlightAware
01:28AM 36.1530 141.8320 316° Northwest 490 564 26,200 -600 Descending FlightAware
01:28AM 36.2110 141.7650 317° Northwest 488 562 26,000 -180 Descending FlightAware
01:29AM 36.2650 141.7020 317° Northwest 446 513 26,000  Level FlightAware
01:30AM 36.3170 141.6420 317° Northwest 418 481 26,000  Level FlightAware
01:30AM 36.3490 141.5880 306° West 378 435 26,000  Level FlightAware
01:30AM 36.3580 141.5560 289° West 370 426 26,000 -540 Level FlightAware
01:31AM 36.3650 141.4950 278° West 363 418 25,600 -1,140 Descending FlightAware
01:32AM 36.3650 141.3890 270° West 351 404 24,500 -1,500 Descending FlightAware
01:32AM 36.3510 141.3190 256° West 346 398 23,500 -2,220 Descending FlightAware
01:33AM 36.3380 141.2510 257° West 335 386 21,900 -2,760 Descending FlightAware
01:33AM 36.3230 141.2180 241° Southwest 320 368 20,900 -3,180 Descending FlightAware
01:33AM 36.3050 141.2000 219° Southwest 314 361 20,000 -3,600 Descending FlightAware
01:34AM 36.2880 141.1930 198° South 310 357 19,300 -3,000 Descending FlightAware
01:34AM 36.2380 141.1980 175° South 303 349 17,600 -2,160 Descending FlightAware
01:35AM 36.1980 141.2050 172° South 277 319 16,900 -1,860 Descending FlightAware
01:35AM 36.1520 141.2140 171° South 264 304 15,500 -1,800 Descending FlightAware
01:36AM 36.1110 141.2220 171° South 258 297 14,800 -1,080 Descending FlightAware
01:36AM 36.0940 141.2250 172° South 245 282 14,600 -1,080 Descending FlightAware
01:37AM 36.0720 141.2150 200° South 245 282 14,200 -1,200 Descending FlightAware
01:37AM 36.0600 141.1990 227° Southwest 254 292 13,900 -1,560 Descending FlightAware
01:37AM 36.0340 141.1580 232° Southwest 268 308 12,900 -1,380 Descending FlightAware
01:38AM 36.0090 141.1130 236° Southwest 263 303 12,300 -1,140 Descending FlightAware
01:39AM 35.9870 141.0670 239° Southwest 263 303 11,600 -1,380 Descending FlightAware
01:39AM 35.9620 141.0150 239° Southwest 263 303 10,600 -1,440 Descending FlightAware
01:40AM 35.9440 140.9760 240° Southwest 266 306 9,900 -1,200 Descending FlightAware
01:40AM 35.9340 140.9560 238° Southwest 265 305 9,700 -720 Descending FlightAware
01:40AM 35.9220 140.9300 240° Southwest 253 291 9,500 -480 Descending FlightAware
01:41AM 35.9110 140.9070 239° Southwest 238 274 9,400 -780 Descending FlightAware
01:41AM 35.8990 140.8820 239° Southwest 235 270 9,000 -1,080 Descending FlightAware
01:41AM 35.8850 140.8530 239° Southwest 235 270 8,600 -1,080 Descending FlightAware
01:42AM 35.8740 140.8290 241° Southwest 233 268 8,200 -1,080 Descending FlightAware
01:42AM 35.8680 140.8190 233° Southwest 227 261 8,100 -780 Descending FlightAware
01:42AM 35.8560 140.8060 221° Southwest 217 250 7,900 -720 Descending FlightAware
01:42AM 35.8400 140.7910 217° Southwest 205 236 7,700 -780 Descending FlightAware
01:43AM 35.8240 140.7770 215° Southwest 206 237 7,400 -900 Descending FlightAware
01:43AM 35.8120 140.7660 217° Southwest 205 236 7,200 -1,020 Descending FlightAware
01:43AM 35.8010 140.7560 216° Southwest 205 236 6,900 -1,020 Descending FlightAware
01:44AM 35.7900 140.7450 219° Southwest 206 237 6,700 -1,200 Descending FlightAware
01:44AM 35.7860 140.7390 231° Southwest 210 242 6,500 -1,140 Descending FlightAware
01:44AM 35.7840 140.7340 244° Southwest 213 245 6,500 -840 Level FlightAware
01:44AM 35.7830 140.7220 264° West 223 257 6,300 -960 Descending FlightAware
01:44AM 35.7850 140.7110 283° West 232 267 6,200 -300 Descending FlightAware
01:44AM 35.7910 140.6980 300° West 244 281 6,200 -300 Level FlightAware
01:44AM 35.8000 140.6880 318° Northwest 247 284 6,100 -180 Descending FlightAware
01:45AM 35.8220 140.6640 319° Northwest 249 287 6,100  Level FlightAware
01:45AM 35.8400 140.6460 321° Northwest 254 292 6,100  Level FlightAware
01:46AM 35.8620 140.6240 321° Northwest 254 292 6,100 -420 Level FlightAware
01:46AM 35.8810 140.6050 321° Northwest 252 290 5,800 -1,080 Descending FlightAware
01:46AM 35.9000 140.5860 321° Northwest 252 290 5,400 -1,200 Descending FlightAware
01:46AM 35.9130 140.5730 321° Northwest 252 290 5,100 -1,080 Descending FlightAware
01:47AM 35.9310 140.5550 321° Northwest 250 288 4,800 -900 Descending FlightAware
01:47AM 35.9490 140.5360 319° Northwest 243 280 4,500 -900 Descending FlightAware
01:47AM 35.9620 140.5220 319° Northwest 242 278 4,300 -600 Descending FlightAware
01:48AM 35.9840 140.4990 320° Northwest 235 270 4,100 -300 Descending FlightAware
01:48AM 35.9990 140.4830 319° Northwest 223 257 4,100  Level FlightAware
01:48AM 36.0020 140.4770 302° West 215 247 4,100  Level FlightAware
01:49AM 36.0120 140.4510 295° West 210 242 4,100 -420 Level FlightAware
01:49AM 36.0200 140.4240 290° West 203 234 3,800 -960 Descending FlightAware
01:49AM 36.0220 140.3980 275° West 196 226 3,400 -1,020 Descending FlightAware
01:50AM 36.0230 140.3870 276° West 194 223 3,300 -540 Descending FlightAware
01:50AM 36.0180 140.3610 257° West 172 198 3,100 -300 Descending FlightAware
01:50AM 36.0140 140.3420 255° West 162 186 3,100  Level FlightAware
01:51AM 36.0100 140.3290 249° West 163 188 3,100  Level FlightAware
01:51AM 36.0060 140.3190 244° Southwest 155 178 3,100  Level FlightAware
01:51AM 36.0020 140.3140 225° Southwest 153 176 3,100  Level FlightAware
01:51AM 35.9950 140.3070 219° Southwest 153 176 3,100  Level FlightAware
01:52AM 35.9830 140.2960 217° Southwest 153 176 3,100  Level FlightAware
01:52AM 35.9770 140.2930 202° Southwest 151 174 3,100  Level FlightAware
01:52AM 35.9720 140.2920 189° South 152 175 3,100 -660 Level FlightAware
01:52AM 35.9580 140.2910 183° South 151 174 2,800 -780 Descending FlightAware
01:52AM 35.9500 140.2910 180° South 147 169 2,700 -840 Descending FlightAware
01:53AM 35.9330 140.2900 183° South 146 168 2,300 -1,020 Descending FlightAware
01:53AM 35.9250 140.2910 174° South 147 169 2,100 -900 Descending FlightAware
01:53AM 35.9200 140.2940 154° Southeast 149 171 2,000 -600 Descending FlightAware
01:53AM 35.9140 140.3000 141° Southeast 147 169 1,900 -180 Descending FlightAware
01:54AM 35.8990 140.3100 152° Southeast 150 173 1,900  Level FlightAware
01:54AM 35.8870 140.3190 149° Southeast 143 165 1,900  Level FlightAware
01:54AM 35.8800 140.3240 150° Southeast 136 157 1,900 -540 Level FlightAware
01:55AM 35.8680 140.3330 149° Southeast 128 147 1,600 -720 Descending FlightAware
01:55AM 35.8580 140.3400 150° Southeast 128 147 1,400 -600 Descending FlightAware
01:55AM 35.8470 140.3480 149° Southeast 132 152 1,200 -600 Descending FlightAware
01:56AM 35.8370 140.3550 150° Southeast 125 144 1,000 -720 Descending FlightAware
01:56AM 35.8250 140.3630 152° Southeast 130 150 700 -660 Descending FlightAware
01:56AM 35.8130 140.3730 146° Southeast 130 150 500 -660 Descending FlightAware
01:57AM 35.8060 140.3770 155° Southeast 128 147 300 -300 Descending FlightAware
01:57AM 35.7940 140.3860 149° Southeast 128 147 300  Level FlightAware